logo
Search for airport 
image banner adimage banner adimage banner ad
image banner ad

FA0107 - Ovrtx Aviation Helistop

Located in , South Africa

ICAO - , IATA -

Data provided by Airmate  

General information

Coordinates: S29°29'26" E31°10'43"
Elevation is 220 feet MSL.
 
View others Airports in Kwazulu-Natal

Operational data

Special qualification required
Current time UTC:
Current local time:
Weather at : FALE - King Shaka International ( 15 km )
METAR: FALE 140500Z 00000KT CAVOK 16/14 Q1020 NOSIG
TAF: TAF FALE 140400Z 1406/1512 VRB03KT CAVOK TX25/1412Z TN17/1503Z BECMG 1410/1412 07011KT SCT035 PROB30 TEMPO 1415/1424 5000 SHRA BKN020 FEW030TCU BECMG 1422/1424 01005KT BECMG 1510/1512 05013KT
View NOTAMs / SUP AIP / TFR affecting this airport [VIEW]
Communications frequencies: [VIEW]

Runways:

Airport contact information

Address: South Africa

Satellite view of FA0107